Time;durP1;ratioP1;P1;durP2;ratioP2;P2;SDS_P1;SDS_P2;PMS_P1;PMS_P2;Temp;Humidity;BMP_temperature;BMP_pressure;BME280_temperature;BME280_humidity;BME280_pressure;Samples;Min_cycle;Max_cycle;Signal;HPM_P1;HPM_P2
2024/04/20 00:04:03;;;;;;;5.30;3.30;;;-0.80;99.90;;;;;;1969499;72;27146;-87
2024/04/20 00:06:52;;;;;;;8.07;3.30;;;-1.00;99.90;;;;;;1957939;72;25151;-87
2024/04/20 00:09:40;;;;;;;4.87;3.17;;;-1.10;99.90;;;;;;1960584;72;25329;-86
2024/04/20 00:12:30;;;;;;;6.20;3.63;;;-1.30;99.90;;;;;;1944807;72;25660;-87
2024/04/20 00:17:59;;;;;;;6.40;3.47;;;-1.30;99.90;;;;;;1935283;72;27048;-86
2024/04/20 00:20:47;;;;;;;5.87;3.27;;;-1.40;99.90;;;;;;1901444;75;25217;-87
2024/04/20 00:23:36;;;;;;;8.17;3.80;;;-1.40;99.90;;;;;;1895476;75;25350;-86
2024/04/20 00:26:25;;;;;;;9.80;3.93;;;-1.40;99.90;;;;;;1835768;77;25244;-86
2024/04/20 00:31:59;;;;;;;7.57;4.23;;;-1.60;99.90;;;;;;1961019;72;26867;-86
2024/04/20 00:34:47;;;;;;;9.90;3.90;;;-1.70;99.90;;;;;;1928928;73;25256;-87
2024/04/20 00:37:35;;;;;;;6.60;3.87;;;-1.70;99.90;;;;;;1924618;72;25237;-86
2024/04/20 00:43:04;;;;;;;6.57;4.03;;;-1.90;99.90;;;;;;1938256;72;27084;-87
2024/04/20 00:45:53;;;;;;;9.30;3.97;;;-1.90;99.90;;;;;;1916919;75;25311;-87
2024/04/20 00:48:42;;;;;;;8.20;4.00;;;-2.00;99.90;;;;;;1916273;75;25170;-87
2024/04/20 00:51:31;;;;;;;6.50;3.50;;;-2.00;99.90;;;;;;1888708;75;25270;-86
2024/04/20 00:54:21;;;;;;;5.40;3.43;;;-2.10;99.90;;;;;;1900739;75;25923;-86
2024/04/20 00:57:12;;;;;;;8.67;4.40;;;-2.20;99.90;;;;;;1877998;76;25248;-86
2024/04/20 01:00:01;;;;;;;10.93;3.93;;;-2.20;99.90;;;;;;1856334;76;25355;-86
2024/04/20 01:02:50;;;;;;;6.50;3.47;;;-2.30;99.90;;;;;;1859587;76;25264;-86
2024/04/20 01:05:39;;;;;;;8.27;4.33;;;-2.20;99.90;;;;;;1871211;76;25289;-86
2024/04/20 01:08:27;;;;;;;9.97;4.17;;;-2.20;99.90;;;;;;1876034;76;25691;-86
2024/04/20 01:11:16;;;;;;;6.43;3.83;;;-2.40;99.90;;;;;;1881051;76;25316;-85
2024/04/20 01:16:44;;;;;;;7.87;3.87;;;-2.50;99.90;;;;;;1946835;72;27118;-87
2024/04/20 01:19:33;;;;;;;8.63;3.70;;;-2.50;99.90;;;;;;1927986;73;25274;-86
2024/04/20 01:22:22;;;;;;;6.90;3.77;;;-2.40;99.90;;;;;;1917093;75;25231;-86
2024/04/20 01:25:11;;;;;;;10.47;3.97;;;-2.50;99.90;;;;;;1917999;75;25226;-86
2024/04/20 01:28:00;;;;;;;9.10;3.77;;;-2.60;99.90;;;;;;1917053;75;25243;-86
2024/04/20 01:30:50;;;;;;;8.70;4.07;;;-2.70;99.90;;;;;;1917998;73;25220;-86
2024/04/20 01:36:19;;;;;;;7.70;3.73;;;-2.80;99.90;;;;;;1938826;72;27595;-86
2024/04/20 01:39:08;;;;;;;8.47;4.03;;;-2.90;99.90;;;;;;1886853;73;25339;-86
2024/04/20 01:41:57;;;;;;;8.83;4.23;;;-3.00;99.90;;;;;;1860239;76;25329;-86
2024/04/20 01:44:45;;;;;;;10.67;4.00;;;-3.10;99.90;;;;;;1834091;76;25256;-87
2024/04/20 01:47:34;;;;;;;30.47;5.40;;;-3.20;99.90;;;;;;1825808;78;25262;-86
2024/04/20 01:50:23;;;;;;;10.63;4.10;;;-3.20;99.90;;;;;;1863887;76;25236;-86
2024/04/20 01:53:11;;;;;;;12.57;5.00;;;-3.30;99.90;;;;;;1792530;79;25265;-86
2024/04/20 01:58:40;;;;;;;15.37;4.53;;;-3.50;99.90;;;;;;1944100;72;27031;-87
2024/04/20 02:04:12;;;;;;;23.67;5.13;;;-3.40;99.90;;;;;;1940292;72;27050;-86
2024/04/20 02:07:00;;;;;;;20.03;5.00;;;-3.50;99.90;;;;;;1878405;73;25262;-85
2024/04/20 02:09:50;;;;;;;13.30;4.80;;;-3.50;99.90;;;;;;1879023;76;25250;-85
2024/04/20 02:12:39;;;;;;;13.40;4.70;;;-3.60;99.90;;;;;;1842842;77;25717;-86
2024/04/20 02:15:28;;;;;;;8.50;4.10;;;-3.50;99.90;;;;;;1863062;76;25836;-86
2024/04/20 02:18:16;;;;;;;8.63;4.27;;;-3.60;99.90;;;;;;1857559;76;25280;-85
2024/04/20 02:21:05;;;;;;;11.47;4.67;;;-3.60;99.90;;;;;;1877183;76;25315;-85
2024/04/20 02:26:35;;;;;;;13.87;4.23;;;-3.80;99.90;;;;;;1952302;72;27724;-85
2024/04/20 02:29:24;;;;;;;9.83;3.87;;;-3.70;99.90;;;;;;1917129;73;25234;-87
2024/04/20 02:32:13;;;;;;;9.00;4.07;;;-3.70;99.90;;;;;;1917278;73;25166;-86
2024/04/20 02:37:41;;;;;;;9.20;4.37;;;-3.80;99.90;;;;;;1925966;72;27424;-86
2024/04/20 02:40:30;;;;;;;9.73;4.77;;;-3.90;99.90;;;;;;1913813;73;25730;-86
2024/04/20 02:46:02;;;;;;;10.90;4.47;;;-4.10;99.90;;;;;;1924373;72;27038;-84
2024/04/20 02:48:50;;;;;;;12.33;4.10;;;-4.20;99.90;;;;;;1914909;75;25238;-86
2024/04/20 02:51:39;;;;;;;9.17;4.47;;;-4.30;99.90;;;;;;1879077;76;25556;-86
2024/04/20 02:54:27;;;;;;;8.93;4.30;;;-4.10;99.90;;;;;;1848138;76;26618;-85
2024/04/20 02:57:16;;;;;;;9.60;4.13;;;-4.10;99.90;;;;;;1851508;76;25658;-86
2024/04/20 03:00:05;;;;;;;8.77;3.70;;;-4.10;99.90;;;;;;1854819;76;25748;-86
2024/04/20 03:02:54;;;;;;;7.80;4.20;;;-4.10;99.90;;;;;;1835980;78;26668;-85
2024/04/20 03:05:43;;;;;;;11.13;4.00;;;-4.10;99.90;;;;;;1822285;77;25309;-85
2024/04/20 03:11:11;;;;;;;7.80;3.87;;;-4.20;99.90;;;;;;1925975;72;27539;-84
2024/04/20 03:14:00;;;;;;;12.90;4.10;;;-4.30;99.90;;;;;;1927072;73;25335;-86
2024/04/20 03:16:48;;;;;;;8.63;4.37;;;-4.30;99.90;;;;;;1863840;76;25272;-86
2024/04/20 03:19:37;;;;;;;8.90;3.93;;;-4.30;99.90;;;;;;1834683;76;25196;-86
2024/04/20 03:22:26;;;;;;;8.43;3.97;;;-4.20;99.90;;;;;;1846432;78;25326;-85
2024/04/20 03:25:15;;;;;;;10.73;3.70;;;-4.20;99.90;;;;;;1843881;76;25152;-85
2024/04/20 03:28:04;;;;;;;9.80;4.40;;;-4.20;99.90;;;;;;1875947;76;25317;-85
2024/04/20 03:30:56;;;;;;;7.97;4.10;;;-4.30;99.90;;;;;;1862645;76;25835;-88
2024/04/20 03:33:45;;;;;;;6.17;3.90;;;-4.30;99.90;;;;;;1917204;73;25257;-85
2024/04/20 03:36:34;;;;;;;8.17;4.23;;;-4.40;99.90;;;;;;1891369;75;25217;-86
2024/04/20 03:39:23;;;;;;;8.70;3.90;;;-4.40;99.90;;;;;;1849681;76;25257;-85
2024/04/20 03:42:11;;;;;;;7.73;3.70;;;-4.50;99.90;;;;;;1866333;76;25729;-86
2024/04/20 03:45:00;;;;;;;7.77;4.27;;;-4.50;99.90;;;;;;1821035;77;25286;-85
2024/04/20 03:47:49;;;;;;;8.83;4.37;;;-4.40;99.90;;;;;;1824823;77;25653;-86
2024/04/20 03:50:38;;;;;;;11.07;4.50;;;-4.30;99.90;;;;;;1855713;76;25634;-86
2024/04/20 03:56:07;;;;;;;12.13;4.33;;;-4.50;99.90;;;;;;1934390;72;27186;-86
2024/04/20 04:01:36;;;;;;;9.47;4.37;;;-4.40;99.90;;;;;;1957268;72;27634;-84
2024/04/20 04:04:26;;;;;;;9.87;4.37;;;-4.50;99.90;;;;;;1926951;74;25213;-85
2024/04/20 04:07:14;;;;;;;11.43;4.73;;;-4.50;99.90;;;;;;1933657;72;25736;-84
2024/04/20 04:10:03;;;;;;;10.30;4.30;;;-4.50;99.90;;;;;;1960960;72;25296;-85
2024/04/20 04:12:52;;;;;;;12.93;5.17;;;-4.50;99.90;;;;;;1957070;72;25222;-86
2024/04/20 04:15:42;;;;;;;11.03;4.80;;;-4.30;99.90;;;;;;1967790;72;25219;-85
2024/04/20 04:18:31;;;;;;;12.00;4.93;;;-4.00;99.90;;;;;;1942125;73;25207;-85
2024/04/20 04:21:20;;;;;;;12.20;5.73;;;-3.60;99.90;;;;;;1951475;72;25694;-85
2024/04/20 04:24:09;;;;;;;12.57;5.73;;;-3.20;99.90;;;;;;1946024;72;25266;-85
2024/04/20 04:27:10;;;;;;;11.87;4.97;;;-2.70;99.90;;;;;;1955555;72;25281;-85
2024/04/20 04:29:58;;;;;;;10.20;4.80;;;-2.30;99.90;;;;;;1948841;72;25750;-86
2024/04/20 04:32:46;;;;;;;7.97;4.20;;;-2.00;99.90;;;;;;1960753;72;25143;-87
2024/04/20 04:35:35;;;;;;;8.73;3.90;;;-1.70;99.90;;;;;;1937947;72;25193;-85
2024/04/20 04:38:24;;;;;;;8.37;3.47;;;-1.50;99.90;;;;;;1930097;73;25213;-86
2024/04/20 04:43:53;;;;;;;6.70;3.53;;;-0.90;99.90;;;;;;1953129;70;27012;-86
2024/04/20 04:46:41;;;;;;;6.53;3.60;;;-0.60;99.90;;;;;;1961717;72;25265;-86
2024/04/20 04:49:29;;;;;;;8.37;3.43;;;-0.30;99.90;;;;;;1972369;72;25729;-85
2024/04/20 04:52:18;;;;;;;4.37;3.23;;;-0.10;99.90;;;;;;1977797;72;25197;-86
2024/04/20 04:55:07;;;;;;;6.30;3.00;;;0.00;99.90;;;;;;1881603;74;25302;-85
2024/04/20 04:57:56;;;;;;;4.83;2.80;;;0.20;99.90;;;;;;1938300;73;25236;-85
2024/04/20 05:00:47;;;;;;;5.83;2.60;;;0.40;99.90;;;;;;1913057;73;25320;-85
2024/04/20 05:03:35;;;;;;;7.63;2.60;;;0.70;99.90;;;;;;1928721;73;25812;-85
2024/04/20 05:06:26;;;;;;;3.93;2.43;;;0.80;99.90;;;;;;1930278;73;25228;-86
2024/04/20 05:09:14;;;;;;;3.87;2.43;;;1.10;99.90;;;;;;1917933;73;25220;-85
2024/04/20 05:12:03;;;;;;;2.83;2.17;;;1.30;99.90;;;;;;1925685;74;25229;-85
2024/04/20 05:14:52;;;;;;;3.90;2.50;;;1.40;99.90;;;;;;1938822;73;25257;-86
2024/04/20 05:20:22;;;;;;;4.43;2.70;;;1.40;99.90;;;;;;1936081;72;26995;-86
2024/04/20 05:25:55;;;;;;;3.13;2.20;;;2.10;99.90;;;;;;1931657;72;27220;-87
2024/04/20 05:28:44;;;;;;;3.60;2.40;;;2.20;99.90;;;;;;1889544;75;25217;-86
2024/04/20 05:31:33;;;;;;;2.90;2.17;;;2.30;99.90;;;;;;1884263;75;25288;-86
2024/04/20 05:34:21;;;;;;;4.20;2.50;;;2.10;99.90;;;;;;1883557;73;25257;-86
2024/04/20 05:39:49;;;;;;;5.87;2.50;;;2.10;99.90;;;;;;1953922;72;27083;-86
2024/04/20 05:42:38;;;;;;;3.20;2.30;;;2.10;99.90;;;;;;1927785;73;25229;-86
2024/04/20 05:45:26;;;;;;;4.50;2.50;;;2.10;99.90;;;;;;1921905;73;25190;-87
2024/04/20 05:50:58;;;;;;;3.87;2.30;;;2.50;99.90;;;;;;1954451;72;27481;-86
2024/04/20 05:53:47;;;;;;;2.87;2.20;;;2.30;99.90;;;;;;1916235;73;25773;-87
2024/04/20 05:56:35;;;;;;;2.97;2.33;;;2.50;99.90;;;;;;1907588;75;25777;-87
2024/04/20 06:02:04;;;;;;;3.13;2.17;;;3.00;99.90;;;;;;1958223;72;27079;-87
2024/04/20 06:04:53;;;;;;;3.97;2.30;;;3.10;99.90;;;;;;1954668;72;25264;-86
2024/04/20 06:07:42;;;;;;;5.27;2.17;;;2.60;99.90;;;;;;1951302;73;25309;-86
2024/04/20 06:10:30;;;;;;;2.80;1.97;;;2.50;99.90;;;;;;1952163;72;25180;-86
2024/04/20 06:13:19;;;;;;;4.27;2.30;;;2.40;99.90;;;;;;1974761;72;25761;-87
2024/04/20 06:16:08;;;;;;;2.50;2.00;;;2.30;99.90;;;;;;1951107;72;25745;-86
2024/04/20 06:18:57;;;;;;;4.67;2.50;;;2.50;99.90;;;;;;1951082;72;25285;-87
2024/04/20 06:21:46;;;;;;;2.83;1.90;;;2.60;99.90;;;;;;1951761;73;25261;-87
2024/04/20 06:24:37;;;;;;;2.77;2.07;;;3.00;99.90;;;;;;1951860;73;25213;-87
2024/04/20 06:27:26;;;;;;;4.43;2.10;;;3.10;99.90;;;;;;1956905;72;25317;-87
2024/04/20 06:32:56;;;;;;;3.83;1.90;;;2.80;99.90;;;;;;1941618;72;27079;-87
2024/04/20 06:35:44;;;;;;;2.20;2.00;;;2.80;99.90;;;;;;1886341;75;25207;-86
2024/04/20 06:41:13;;;;;;;2.53;2.00;;;3.10;99.90;;;;;;1947861;72;27099;-87
2024/04/20 06:44:02;;;;;;;2.83;2.10;;;3.20;99.90;;;;;;1891464;75;25176;-87
2024/04/20 06:46:50;;;;;;;2.87;2.23;;;3.30;99.90;;;;;;1889571;75;25223;-86
2024/04/20 06:49:39;;;;;;;2.47;2.10;;;3.40;99.90;;;;;;1910026;75;25211;-86
2024/04/20 06:52:27;;;;;;;2.27;1.57;;;3.40;99.90;;;;;;1899154;75;25162;-86
2024/04/20 06:57:57;;;;;;;2.37;1.70;;;3.50;99.90;;;;;;1935229;72;26984;-86
2024/04/20 07:00:47;;;;;;;2.13;1.70;;;3.60;99.90;;;;;;1870837;76;25780;-86
2024/04/20 07:03:40;;;;;;;2.20;1.90;;;3.70;99.90;;;;;;1839778;76;25295;-85
2024/04/20 07:06:32;;;;;;;4.33;1.93;;;3.80;99.90;;;;;;1875145;75;25540;-85
2024/04/20 07:09:21;;;;;;;2.60;1.80;;;4.20;99.90;;;;;;1842436;76;25356;-87
2024/04/20 07:12:10;;;;;;;2.67;1.77;;;4.40;99.90;;;;;;1868573;76;25237;-86
2024/04/20 07:17:40;;;;;;;1.80;1.70;;;4.60;99.90;;;;;;1942729;72;27072;-86
2024/04/20 07:23:07;;;;;;;2.63;1.80;;;5.10;99.90;;;;;;1949290;72;26974;-86
2024/04/20 07:26:00;;;;;;;2.17;1.97;;;5.30;99.90;;;;;;1953543;72;25271;-86
2024/04/20 07:28:48;;;;;;;2.00;1.80;;;5.20;99.90;;;;;;1945846;72;25291;-84
2024/04/20 07:31:37;;;;;;;2.53;1.87;;;5.20;99.90;;;;;;1958313;72;25185;-85
2024/04/20 07:34:29;;;;;;;1.53;1.43;;;5.50;99.90;;;;;;1953788;73;25211;-85
2024/04/20 07:37:18;;;;;;;4.60;1.67;;;5.20;99.90;;;;;;1958490;72;25766;-85
2024/04/20 07:40:09;;;;;;;2.10;1.60;;;5.40;99.90;;;;;;1954870;72;25272;-85
2024/04/20 07:42:59;;;;;;;2.57;1.73;;;5.40;99.90;;;;;;1959112;72;25263;-86
2024/04/20 07:45:47;;;;;;;1.93;1.70;;;5.40;99.90;;;;;;1957131;72;25183;-84
2024/04/20 07:48:36;;;;;;;1.50;1.40;;;5.40;99.90;;;;;;1958294;72;25191;-85
2024/04/20 07:51:25;;;;;;;1.73;1.60;;;5.40;99.90;;;;;;1944195;72;25209;-86
2024/04/20 07:54:19;;;;;;;2.07;1.77;;;5.40;99.90;;;;;;1946019;72;25784;-86
2024/04/20 07:59:47;;;;;;;2.17;1.60;;;5.70;99.90;;;;;;1960154;72;27175;-86
2024/04/20 08:05:15;;;;;;;1.80;1.60;;;5.70;99.90;;;;;;1946549;72;27469;-86
2024/04/20 08:08:04;;;;;;;2.73;1.77;;;5.80;99.90;;;;;;1901053;73;25194;-86
2024/04/20 08:10:53;;;;;;;2.00;1.80;;;6.30;99.90;;;;;;1849001;75;25327;-86
2024/04/20 08:13:43;;;;;;;1.70;1.60;;;6.40;99.90;;;;;;1876476;75;25237;-87
2024/04/20 08:16:31;;;;;;;3.33;1.80;;;6.10;99.90;;;;;;1842095;77;25371;-86
2024/04/20 08:22:02;;;;;;;1.70;1.43;;;6.70;99.90;;;;;;1939263;72;27525;-87
2024/04/20 08:24:50;;;;;;;2.00;1.50;;;6.50;99.90;;;;;;1912262;75;25229;-86
2024/04/20 08:30:20;;;;;;;1.47;1.37;;;6.30;99.90;;;;;;1930135;72;27036;-84
2024/04/20 08:33:09;;;;;;;1.87;1.40;;;6.50;99.90;;;;;;1901684;75;25727;-85
2024/04/20 08:38:37;;;;;;;1.90;1.60;;;7.30;99.90;;;;;;1926032;73;27178;-85
2024/04/20 08:41:28;;;;;;;2.20;1.70;;;7.30;99.90;;;;;;1926708;73;25263;-87
2024/04/20 08:47:11;;;;;;;2.60;1.40;;;7.50;99.90;;;;;;1946163;72;28115;-87
2024/04/20 08:49:56;;;;;;;3.17;1.60;;;7.20;99.90;;;;;;1938663;72;25240;-85
2024/04/20 08:52:47;;;;;;;1.27;1.03;;;7.50;99.90;;;;;;1927181;73;25270;-84
2024/04/20 08:55:37;;;;;;;5.17;1.50;;;7.50;99.90;;;;;;1913465;73;25273;-85
2024/04/20 08:58:26;;;;;;;3.53;1.23;;;7.50;99.90;;;;;;1898908;73;25714;-84
2024/04/20 09:03:58;;;;;;;1.53;1.30;;;7.10;99.90;;;;;;1936181;72;27583;-85
2024/04/20 09:06:48;;;;;;;1.70;1.60;;;7.10;99.90;;;;;;1906786;74;25299;-86
2024/04/20 09:09:38;;;;;;;3.20;1.50;;;7.90;99.90;;;;;;1913905;74;25205;-86
2024/04/20 09:12:27;;;;;;;1.97;1.50;;;8.10;99.90;;;;;;1918418;74;25208;-86
2024/04/20 09:15:18;;;;;;;1.67;1.43;;;8.00;99.90;;;;;;1895359;74;25250;-85
2024/04/20 09:20:47;;;;;;;1.50;1.40;;;7.50;99.90;;;;;;1937734;72;27569;-86
2024/04/20 09:23:38;;;;;;;1.87;1.07;;;7.70;99.90;;;;;;1870082;75;25259;-86
2024/04/20 09:26:25;;;;;;;3.57;1.27;;;7.50;99.90;;;;;;1895274;74;25217;-85
2024/04/20 09:31:58;;;;;;;4.20;1.30;;;7.20;99.90;;;;;;1922634;72;27682;-85
2024/04/20 09:34:47;;;;;;;1.30;1.00;;;7.40;99.90;;;;;;1897928;73;25239;-86
2024/04/20 09:37:35;;;;;;;4.40;1.40;;;7.50;99.90;;;;;;1873443;76;25484;-85
2024/04/20 09:40:24;;;;;;;4.23;1.50;;;7.50;99.90;;;;;;1828919;76;25937;-85
2024/04/20 09:43:14;;;;;;;2.07;1.10;;;7.40;99.90;;;;;;1846711;76;25213;-86
2024/04/20 09:46:05;;;;;;;3.13;1.30;;;7.50;99.90;;;;;;1862860;76;25240;-85
2024/04/20 09:51:36;;;;;;;2.03;1.30;;;7.90;99.90;;;;;;1961600;72;27487;-86
2024/04/20 09:57:09;;;;;;;2.33;1.30;;;7.80;99.90;;;;;;1961568;72;27088;-85
2024/04/20 09:59:59;;;;;;;2.37;1.50;;;7.90;99.90;;;;;;1928323;73;25253;-87
2024/04/20 10:05:27;;;;;;;1.30;1.20;;;7.60;99.90;;;;;;1926774;72;26771;-84
2024/04/20 10:08:19;;;;;;;5.77;1.50;;;7.70;99.90;;;;;;1899971;75;25828;-87
2024/04/20 10:11:10;;;;;;;1.73;1.37;;;7.70;99.90;;;;;;1914484;74;25172;-86
2024/04/20 10:14:02;;;;;;;1.50;1.23;;;7.90;99.90;;;;;;1898783;74;25182;-85
2024/04/20 10:16:51;;;;;;;2.10;1.60;;;8.10;99.90;;;;;;1902369;74;25331;-85
2024/04/20 10:19:43;;;;;;;1.30;1.20;;;8.00;99.90;;;;;;1912639;75;25646;-86
2024/04/20 10:22:31;;;;;;;2.73;1.50;;;8.30;99.90;;;;;;1911977;74;25995;-86
2024/04/20 10:25:20;;;;;;;2.10;1.17;;;8.40;99.90;;;;;;1909433;74;25243;-85
2024/04/20 10:28:09;;;;;;;5.57;1.50;;;8.00;99.90;;;;;;1901523;74;25226;-86
2024/04/20 10:31:02;;;;;;;2.10;1.27;;;8.00;99.90;;;;;;1904661;74;25630;-85
2024/04/20 10:33:57;;;;;;;1.63;1.40;;;7.90;99.90;;;;;;1911469;75;25267;-84
2024/04/20 10:36:48;;;;;;;2.20;1.67;;;8.10;99.90;;;;;;1913142;74;25857;-84
2024/04/20 10:39:38;;;;;;;2.03;1.60;;;8.20;99.90;;;;;;1907674;74;25368;-85
2024/04/20 10:45:07;;;;;;;1.77;1.40;;;8.80;99.90;;;;;;1937093;72;27625;-85
2024/04/20 10:47:58;;;;;;;1.83;1.57;;;8.80;99.90;;;;;;1891190;74;25270;-86
2024/04/20 10:50:47;;;;;;;2.27;1.50;;;8.30;99.90;;;;;;1894837;74;25221;-86
2024/04/20 10:53:37;;;;;;;2.53;1.30;;;8.10;99.90;;;;;;1902778;74;25287;-85
2024/04/20 10:56:25;;;;;;;3.13;1.50;;;8.30;99.90;;;;;;1869732;74;26361;-86
2024/04/20 10:59:15;;;;;;;1.50;1.30;;;8.80;99.90;;;;;;1879177;76;25298;-85
2024/04/20 11:02:07;;;;;;;4.13;1.20;;;8.80;99.90;;;;;;1873214;76;25190;-85
2024/04/20 11:04:54;;;;;;;1.90;1.27;;;8.70;99.90;;;;;;1880884;74;25239;-86
2024/04/20 11:07:43;;;;;;;1.87;1.40;;;8.20;99.90;;;;;;1870526;74;25731;-85
2024/04/20 11:10:31;;;;;;;1.30;1.20;;;8.70;99.90;;;;;;1874144;74;25307;-85
2024/04/20 11:13:20;;;;;;;7.30;1.30;;;9.00;99.90;;;;;;1861934;74;26021;-85
2024/04/20 11:16:10;;;;;;;3.17;1.30;;;8.70;99.90;;;;;;1863771;74;25513;-85
2024/04/20 11:18:59;;;;;;;2.10;1.20;;;8.80;99.90;;;;;;1881009;74;25233;-86
2024/04/20 11:21:47;;;;;;;1.00;1.00;;;8.80;99.90;;;;;;1878544;74;25279;-86
2024/04/20 11:24:37;;;;;;;4.37;1.40;;;8.90;99.90;;;;;;1834612;76;25259;-86
2024/04/20 11:27:26;;;;;;;2.93;1.40;;;8.90;99.90;;;;;;1863557;74;25277;-84
2024/04/20 11:32:57;;;;;;;2.67;1.20;;;9.20;99.90;;;;;;1916302;74;27011;-86
2024/04/20 11:35:48;;;;;;;1.47;1.37;;;9.30;99.90;;;;;;1914743;73;25275;-86
2024/04/20 11:38:37;;;;;;;1.93;1.27;;;9.00;99.90;;;;;;1909850;75;25952;-86
2024/04/20 11:41:26;;;;;;;1.77;1.27;;;9.00;99.90;;;;;;1909557;73;25302;-85
2024/04/20 11:44:18;;;;;;;2.77;1.50;;;9.10;99.90;;;;;;1912007;75;25238;-86
2024/04/20 11:47:16;;;;;;;1.30;1.20;;;8.90;99.90;;;;;;1900099;75;25250;-86
2024/04/20 11:56:02;;;;;;;1.30;1.20;;;9.00;99.90;;;;;;1986258;71;25285;-86
2024/04/20 11:58:51;;;;;;;1.90;1.30;;;9.40;99.90;;;;;;1985405;71;25615;-87
2024/04/20 12:01:40;;;;;;;1.70;1.13;;;9.30;99.90;;;;;;1982450;71;25254;-87
2024/04/20 12:04:28;;;;;;;1.67;1.23;;;9.40;99.90;;;;;;1976644;71;25655;-86
2024/04/20 12:07:17;;;;;;;1.73;1.27;;;9.20;99.90;;;;;;1978477;71;25879;-87
2024/04/20 12:12:51;;;;;;;4.00;1.20;;;9.50;99.90;;;;;;2023089;69;26976;-86
2024/04/20 12:15:40;;;;;;;1.37;1.17;;;9.10;99.90;;;;;;1994404;71;25297;-85
2024/04/20 12:21:12;;;;;;;1.17;1.00;;;9.10;99.90;;;;;;1949036;72;27040;-86
2024/04/20 12:23:57;;;;;;;1.43;1.00;;;9.10;99.90;;;;;;1913518;75;25228;-87
2024/04/20 12:29:30;;;;;;;3.60;1.03;;;9.20;99.90;;;;;;1944190;72;27100;-86
2024/04/20 12:35:01;;;;;;;1.83;1.03;;;9.10;99.90;;;;;;1945045;72;27060;-86
2024/04/20 12:37:49;;;;;;;1.40;1.13;;;9.10;99.90;;;;;;1923930;73;25241;-86
2024/04/20 12:40:37;;;;;;;3.37;1.17;;;9.30;99.90;;;;;;1886461;75;25186;-86
2024/04/20 12:43:27;;;;;;;2.60;1.10;;;9.60;99.90;;;;;;1921742;73;25565;-86
2024/04/20 12:46:17;;;;;;;1.10;0.90;;;9.70;99.90;;;;;;1925557;73;25792;-86
2024/04/20 12:49:07;;;;;;;2.73;0.90;;;9.70;97.70;;;;;;1919435;73;25886;-86
2024/04/20 12:54:41;;;;;;;1.70;1.00;;;10.20;98.80;;;;;;1936261;72;27602;-87
2024/04/20 13:00:11;;;;;;;1.30;0.87;;;9.80;91.40;;;;;;1903940;74;27153;-86
2024/04/20 13:03:01;;;;;;;1.90;0.80;;;9.80;93.00;;;;;;1829380;77;25292;-85
2024/04/20 13:05:49;;;;;;;1.43;1.00;;;9.50;93.30;;;;;;1835802;76;25807;-86
2024/04/20 13:08:38;;;;;;;3.03;1.33;;;9.50;91.70;;;;;;1838640;76;25290;-86
2024/04/20 13:11:27;;;;;;;1.47;1.13;;;9.50;93.10;;;;;;1834286;77;25296;-87
2024/04/20 13:16:59;;;;;;;1.57;1.00;;;9.50;95.90;;;;;;1930158;72;27013;-86
2024/04/20 13:19:49;;;;;;;1.77;0.77;;;9.60;94.00;;;;;;1886950;75;25176;-87
2024/04/20 13:22:38;;;;;;;2.50;0.90;;;9.60;91.50;;;;;;1899376;74;25301;-87
2024/04/20 13:25:27;;;;;;;1.73;1.00;;;9.40;91.90;;;;;;1902027;75;25526;-87
2024/04/20 13:28:17;;;;;;;0.50;0.50;;;9.70;93.00;;;;;;1901888;75;25811;-86
2024/04/20 13:31:05;;;;;;;0.90;0.90;;;9.70;91.80;;;;;;1904839;75;25760;-87
2024/04/20 13:33:55;;;;;;;1.83;1.00;;;9.40;92.50;;;;;;1904540;75;25257;-87
2024/04/20 13:39:25;;;;;;;2.10;0.97;;;9.30;90.80;;;;;;1912358;72;27052;-86
2024/04/20 13:42:13;;;;;;;2.50;0.90;;;9.30;90.30;;;;;;1902099;73;25324;-87
2024/04/20 13:45:02;;;;;;;1.23;0.97;;;9.20;88.50;;;;;;1897932;75;25224;-87
2024/04/20 13:47:50;;;;;;;3.27;1.00;;;9.10;91.20;;;;;;1904817;74;25960;-87
2024/04/20 13:50:39;;;;;;;1.90;1.03;;;9.20;88.20;;;;;;1901829;73;25193;-89
2024/04/20 13:53:29;;;;;;;1.03;1.03;;;9.10;89.10;;;;;;1898130;75;25235;-87
2024/04/20 13:56:17;;;;;;;0.93;0.90;;;9.10;90.20;;;;;;1876262;75;25328;-87
2024/04/20 13:59:06;;;;;;;1.10;1.00;;;9.40;92.00;;;;;;1879826;75;25830;-88
2024/04/20 14:01:55;;;;;;;1.20;1.10;;;9.20;90.70;;;;;;1871412;76;25193;-90
2024/04/20 14:04:43;;;;;;;2.20;1.00;;;9.10;91.40;;;;;;1869967;76;25210;-88
2024/04/20 14:10:15;;;;;;;1.43;1.00;;;9.60;90.70;;;;;;1940553;72;27041;-89
2024/04/20 14:15:51;;;;;;;0.90;0.90;;;9.60;91.00;;;;;;1931954;72;27538;-89
2024/04/20 14:21:19;;;;;;;2.30;0.90;;;9.40;92.20;;;;;;1932601;72;27305;-88
2024/04/20 14:24:10;;;;;;;2.43;0.90;;;9.40;91.40;;;;;;1888559;75;25261;-89
2024/04/20 14:29:38;;;;;;;1.00;1.00;;;9.60;91.70;;;;;;1943745;72;27056;-88
2024/04/20 14:32:28;;;;;;;0.80;0.80;;;9.30;90.80;;;;;;1929955;72;25150;-88
2024/04/20 14:35:19;;;;;;;1.50;1.07;;;9.20;92.80;;;;;;1934863;72;26540;-89
2024/04/20 14:38:08;;;;;;;1.10;1.00;;;9.10;89.70;;;;;;1945240;72;25241;-89
2024/04/20 14:40:57;;;;;;;0.87;0.80;;;9.30;89.00;;;;;;1917688;73;25276;-89
2024/04/20 14:43:46;;;;;;;1.87;1.43;;;9.30;90.30;;;;;;1931042;73;25274;-88
2024/04/20 14:46:37;;;;;;;0.90;0.90;;;9.20;93.00;;;;;;1955493;72;25233;-89
2024/04/20 14:49:26;;;;;;;1.10;1.00;;;9.30;91.80;;;;;;1939292;72;25260;-89
2024/04/20 14:52:15;;;;;;;0.90;0.90;;;9.30;85.40;;;;;;1949615;72;25160;-89
2024/04/20 14:57:46;;;;;;;0.90;0.90;;;9.40;88.50;;;;;;1896491;74;27215;-89
2024/04/20 15:00:34;;;;;;;1.00;0.80;;;9.50;90.80;;;;;;1836649;76;26412;-89
2024/04/20 15:03:23;;;;;;;1.17;1.00;;;9.60;90.50;;;;;;1832285;77;25692;-88
2024/04/20 15:06:12;;;;;;;0.90;0.90;;;9.60;88.40;;;;;;1823335;76;25280;-88
2024/04/20 15:09:00;;;;;;;1.30;0.90;;;9.60;87.80;;;;;;1834361;76;25801;-88
2024/04/20 15:11:49;;;;;;;2.20;0.90;;;9.70;90.40;;;;;;1818515;77;25177;-86
2024/04/20 15:14:39;;;;;;;1.33;1.00;;;9.80;85.40;;;;;;1830131;77;25184;-88
2024/04/20 15:17:27;;;;;;;1.30;1.00;;;9.60;85.60;;;;;;1829179;76;25733;-86
2024/04/20 15:20:16;;;;;;;0.70;0.70;;;9.30;84.80;;;;;;1826459;77;25308;-86
2024/04/20 15:23:05;;;;;;;1.47;1.00;;;9.30;86.00;;;;;;1840391;77;25261;-86
2024/04/20 15:25:54;;;;;;;1.47;0.90;;;9.50;90.00;;;;;;1829438;77;25333;-86
2024/04/20 15:28:43;;;;;;;0.90;0.90;;;9.50;88.20;;;;;;1843570;75;25235;-85
2024/04/20 15:31:32;;;;;;;2.67;1.00;;;9.10;86.00;;;;;;1834775;77;25648;-86
2024/04/20 15:37:01;;;;;;;0.60;0.60;;;9.10;88.30;;;;;;1934838;72;27088;-87
2024/04/20 15:42:34;;;;;;;0.97;0.90;;;8.90;83.70;;;;;;1956772;72;27069;-87
2024/04/20 15:45:22;;;;;;;0.70;0.70;;;8.90;82.20;;;;;;1938438;73;25286;-86
2024/04/20 15:48:11;;;;;;;0.80;0.80;;;9.00;84.00;;;;;;1940477;72;25233;-86
2024/04/20 15:51:01;;;;;;;0.60;0.60;;;8.90;87.00;;;;;;1919466;72;25750;-86
2024/04/20 15:56:32;;;;;;;1.80;0.90;;;9.00;88.30;;;;;;1930665;72;27406;-87
2024/04/20 15:59:21;;;;;;;1.20;1.10;;;9.00;88.70;;;;;;1906042;75;25272;-86
2024/04/20 16:02:10;;;;;;;0.87;0.87;;;8.80;85.30;;;;;;1906586;74;25596;-89
2024/04/20 16:04:59;;;;;;;0.67;0.67;;;8.90;85.80;;;;;;1914646;75;25235;-88
2024/04/20 16:07:48;;;;;;;0.70;0.60;;;8.90;85.80;;;;;;1904706;74;25300;-85
2024/04/20 16:13:16;;;;;;;0.80;0.80;;;8.80;89.30;;;;;;2031812;69;27672;-87
2024/04/20 16:18:46;;;;;;;0.80;0.80;;;8.70;83.90;;;;;;1948543;72;28463;-88
2024/04/20 16:21:35;;;;;;;1.70;1.23;;;8.80;83.70;;;;;;1916680;75;25271;-86
2024/04/20 16:24:24;;;;;;;1.23;1.00;;;8.70;86.20;;;;;;1919042;73;25321;-89
2024/04/20 16:27:12;;;;;;;0.90;0.90;;;8.70;86.50;;;;;;1927726;73;25191;-87
2024/04/20 16:30:01;;;;;;;1.97;1.07;;;8.70;85.00;;;;;;1927400;73;25247;-88
2024/04/20 16:32:50;;;;;;;0.70;0.70;;;8.80;86.10;;;;;;1928428;73;25586;-88
2024/04/20 16:35:39;;;;;;;1.27;0.73;;;8.90;88.60;;;;;;1917877;73;25246;-87
2024/04/20 16:38:29;;;;;;;2.30;1.20;;;8.90;85.50;;;;;;1928439;73;25195;-88
2024/04/20 16:41:18;;;;;;;0.73;0.73;;;8.80;88.40;;;;;;1919769;73;25791;-86
2024/04/20 16:44:07;;;;;;;0.70;0.70;;;8.70;86.70;;;;;;1925248;73;25261;-87
2024/04/20 16:46:56;;;;;;;2.00;1.10;;;8.60;86.80;;;;;;1930068;73;25276;-87
2024/04/20 16:49:46;;;;;;;0.90;0.90;;;8.60;87.60;;;;;;1934635;73;25224;-87
2024/04/20 16:58:07;;;;;;;1.13;1.13;;;8.50;83.00;;;;;;1952628;72;26957;-87
2024/04/20 17:00:57;;;;;;;1.23;0.90;;;8.50;84.60;;;;;;1988568;71;25261;-89
2024/04/20 17:03:47;;;;;;;2.27;1.20;;;8.60;84.60;;;;;;1985991;71;25285;-87
2024/04/20 17:06:36;;;;;;;1.27;0.90;;;8.60;82.80;;;;;;1974036;72;25179;-87
2024/04/20 17:09:25;;;;;;;1.17;1.07;;;8.60;81.90;;;;;;1957647;72;25329;-89
2024/04/20 17:12:14;;;;;;;1.30;1.10;;;8.50;81.80;;;;;;1967564;72;25337;-87
2024/04/20 17:15:03;;;;;;;1.10;1.00;;;8.60;82.60;;;;;;1973244;71;25199;-86
2024/04/20 17:17:52;;;;;;;1.10;1.00;;;8.70;83.70;;;;;;1971226;71;25203;-86
2024/04/20 17:20:40;;;;;;;1.37;1.27;;;8.60;82.50;;;;;;1969090;71;25718;-86
2024/04/20 17:23:33;;;;;;;1.20;0.83;;;8.50;81.70;;;;;;1970205;72;25329;-86
2024/04/20 17:26:25;;;;;;;1.23;0.80;;;8.50;83.80;;;;;;1980316;71;25201;-86
2024/04/20 17:29:20;;;;;;;1.10;0.87;;;8.40;81.70;;;;;;1966621;71;25470;-87
2024/04/20 17:32:04;;;;;;;1.03;0.80;;;8.20;80.20;;;;;;1970497;72;26358;-87